sensor_id;sensor_type;location;lat;lon;timestamp;pressure;altitude;pressure_sealevel;temperature;humidity
16355;BME280;8287;51.644;8.494;2023-03-19T00:01:20;99979.38;;;12.79;73.98
16355;BME280;8287;51.644;8.494;2023-03-19T00:03:47;99986.00;;;12.73;74.28
16355;BME280;8287;51.644;8.494;2023-03-19T00:06:15;99988.22;;;12.71;74.12
16355;BME280;8287;51.644;8.494;2023-03-19T00:08:42;99986.63;;;12.70;74.53
16355;BME280;8287;51.644;8.494;2023-03-19T00:11:09;99996.63;;;12.73;74.68
16355;BME280;8287;51.644;8.494;2023-03-19T00:13:36;99986.06;;;12.64;74.43
16355;BME280;8287;51.644;8.494;2023-03-19T00:16:03;99991.72;;;12.63;74.37
16355;BME280;8287;51.644;8.494;2023-03-19T00:18:31;99992.47;;;12.63;74.88
16355;BME280;8287;51.644;8.494;2023-03-19T00:20:57;99995.91;;;12.64;74.65
16355;BME280;8287;51.644;8.494;2023-03-19T00:23:26;99991.91;;;12.58;75.20
16355;BME280;8287;51.644;8.494;2023-03-19T00:25:53;99994.75;;;12.53;75.50
16355;BME280;8287;51.644;8.494;2023-03-19T00:28:19;99991.00;;;12.54;75.13
16355;BME280;8287;51.644;8.494;2023-03-19T00:30:46;99994.25;;;12.59;74.82
16355;BME280;8287;51.644;8.494;2023-03-19T00:33:13;99996.63;;;12.52;75.44
16355;BME280;8287;51.644;8.494;2023-03-19T00:35:39;99995.22;;;12.55;74.89
16355;BME280;8287;51.644;8.494;2023-03-19T00:38:06;99993.66;;;12.54;75.37
16355;BME280;8287;51.644;8.494;2023-03-19T00:40:34;99996.09;;;12.59;74.85
16355;BME280;8287;51.644;8.494;2023-03-19T00:43:01;99991.22;;;12.61;74.52
16355;BME280;8287;51.644;8.494;2023-03-19T00:45:28;99987.94;;;12.64;74.02
16355;BME280;8287;51.644;8.494;2023-03-19T00:47:55;99986.91;;;12.56;74.29
16355;BME280;8287;51.644;8.494;2023-03-19T00:50:22;99988.97;;;12.51;74.53
16355;BME280;8287;51.644;8.494;2023-03-19T00:52:49;99992.75;;;12.50;74.75
16355;BME280;8287;51.644;8.494;2023-03-19T00:55:16;99985.69;;;12.54;74.93
16355;BME280;8287;51.644;8.494;2023-03-19T00:57:44;99980.56;;;12.49;74.92
16355;BME280;8287;51.644;8.494;2023-03-19T01:00:12;99981.44;;;12.53;74.74
16355;BME280;8287;51.644;8.494;2023-03-19T01:02:39;99989.75;;;12.51;75.16
16355;BME280;8287;51.644;8.494;2023-03-19T01:05:06;99985.22;;;12.52;74.74
16355;BME280;8287;51.644;8.494;2023-03-19T01:07:33;99983.88;;;12.46;75.21
16355;BME280;8287;51.644;8.494;2023-03-19T01:10:00;99987.88;;;12.52;74.81
16355;BME280;8287;51.644;8.494;2023-03-19T01:12:27;99989.06;;;12.63;74.52
16355;BME280;8287;51.644;8.494;2023-03-19T01:14:55;99982.50;;;12.60;74.41
16355;BME280;8287;51.644;8.494;2023-03-19T01:17:21;99984.50;;;12.63;74.54
16355;BME280;8287;51.644;8.494;2023-03-19T01:19:48;99990.66;;;12.55;74.92
16355;BME280;8287;51.644;8.494;2023-03-19T01:22:15;99984.97;;;12.45;75.87
16355;BME280;8287;51.644;8.494;2023-03-19T01:24:42;99984.09;;;12.53;75.13
16355;BME280;8287;51.644;8.494;2023-03-19T01:27:09;99984.72;;;12.58;75.05
16355;BME280;8287;51.644;8.494;2023-03-19T01:29:36;99979.97;;;12.64;74.95
16355;BME280;8287;51.644;8.494;2023-03-19T01:32:04;99976.25;;;12.77;73.92
16355;BME280;8287;51.644;8.494;2023-03-19T01:34:31;99973.81;;;12.72;74.20
16355;BME280;8287;51.644;8.494;2023-03-19T01:36:58;99977.44;;;12.67;74.09
16355;BME280;8287;51.644;8.494;2023-03-19T01:39:25;99982.03;;;12.79;74.17
16355;BME280;8287;51.644;8.494;2023-03-19T01:41:52;99977.34;;;12.76;73.75
16355;BME280;8287;51.644;8.494;2023-03-19T01:44:25;99973.41;;;12.82;73.55
16355;BME280;8287;51.644;8.494;2023-03-19T01:46:53;99974.69;;;12.76;74.13
16355;BME280;8287;51.644;8.494;2023-03-19T01:49:23;99970.63;;;12.78;73.92
16355;BME280;8287;51.644;8.494;2023-03-19T01:51:52;99970.31;;;12.80;74.25
16355;BME280;8287;51.644;8.494;2023-03-19T01:54:21;99964.44;;;12.86;73.55
16355;BME280;8287;51.644;8.494;2023-03-19T01:56:52;99970.75;;;12.82;74.16
16355;BME280;8287;51.644;8.494;2023-03-19T01:59:24;99967.03;;;12.95;73.52
16355;BME280;8287;51.644;8.494;2023-03-19T02:01:56;99978.97;;;12.89;74.12
16355;BME280;8287;51.644;8.494;2023-03-19T02:04:26;99973.28;;;12.58;74.88
16355;BME280;8287;51.644;8.494;2023-03-19T02:06:54;99973.41;;;12.61;74.94
16355;BME280;8287;51.644;8.494;2023-03-19T02:09:23;99973.56;;;12.65;74.81
16355;BME280;8287;51.644;8.494;2023-03-19T02:11:49;99979.53;;;12.62;75.48
16355;BME280;8287;51.644;8.494;2023-03-19T02:14:16;99982.09;;;12.50;75.47
16355;BME280;8287;51.644;8.494;2023-03-19T02:16:43;99971.88;;;12.40;76.47
16355;BME280;8287;51.644;8.494;2023-03-19T02:19:15;99983.59;;;12.39;77.11
16355;BME280;8287;51.644;8.494;2023-03-19T02:21:43;99978.47;;;12.54;75.71
16355;BME280;8287;51.644;8.494;2023-03-19T02:24:13;99980.16;;;12.38;76.73
16355;BME280;8287;51.644;8.494;2023-03-19T02:26:44;99978.28;;;12.39;77.00
16355;BME280;8287;51.644;8.494;2023-03-19T02:29:12;99973.94;;;12.34;77.02
16355;BME280;8287;51.644;8.494;2023-03-19T02:31:38;99982.41;;;12.28;77.38
16355;BME280;8287;51.644;8.494;2023-03-19T02:34:32;99974.66;;;12.23;77.48
16355;BME280;8287;51.644;8.494;2023-03-19T02:37:04;99975.31;;;12.20;77.65
16355;BME280;8287;51.644;8.494;2023-03-19T02:39:37;99987.94;;;12.23;77.73
16355;BME280;8287;51.644;8.494;2023-03-19T02:42:10;99983.00;;;12.13;78.49
16355;BME280;8287;51.644;8.494;2023-03-19T02:44:37;99980.09;;;12.26;77.71
16355;BME280;8287;51.644;8.494;2023-03-19T02:47:04;99980.34;;;12.13;78.81
16355;BME280;8287;51.644;8.494;2023-03-19T02:49:31;99975.34;;;12.11;79.25
16355;BME280;8287;51.644;8.494;2023-03-19T02:51:57;99984.22;;;12.15;78.66
16355;BME280;8287;51.644;8.494;2023-03-19T02:54:25;99977.09;;;12.28;77.72
16355;BME280;8287;51.644;8.494;2023-03-19T02:56:51;99987.72;;;12.28;78.63
16355;BME280;8287;51.644;8.494;2023-03-19T02:59:19;99979.44;;;12.29;78.36
16355;BME280;8287;51.644;8.494;2023-03-19T03:01:46;99979.75;;;12.28;78.18
16355;BME280;8287;51.644;8.494;2023-03-19T03:04:13;99975.75;;;12.22;78.77
16355;BME280;8287;51.644;8.494;2023-03-19T03:06:41;99984.44;;;12.31;78.31
16355;BME280;8287;51.644;8.494;2023-03-19T03:09:08;99987.72;;;12.28;78.48
16355;BME280;8287;51.644;8.494;2023-03-19T03:11:35;99992.66;;;12.17;79.24
16355;BME280;8287;51.644;8.494;2023-03-19T03:14:01;99988.69;;;12.03;79.96
16355;BME280;8287;51.644;8.494;2023-03-19T03:16:29;99990.63;;;12.14;79.20
16355;BME280;8287;51.644;8.494;2023-03-19T03:18:56;99995.31;;;12.17;79.24
16355;BME280;8287;51.644;8.494;2023-03-19T03:21:23;99994.53;;;12.17;79.11
16355;BME280;8287;51.644;8.494;2023-03-19T03:23:50;99990.00;;;12.17;79.06
16355;BME280;8287;51.644;8.494;2023-03-19T03:26:16;99998.94;;;12.13;79.24
16355;BME280;8287;51.644;8.494;2023-03-19T03:28:43;99997.38;;;12.12;79.21
16355;BME280;8287;51.644;8.494;2023-03-19T03:31:10;99999.69;;;12.13;79.43
16355;BME280;8287;51.644;8.494;2023-03-19T03:33:39;100003.16;;;12.14;79.41
16355;BME280;8287;51.644;8.494;2023-03-19T03:36:06;99996.09;;;12.18;79.08
16355;BME280;8287;51.644;8.494;2023-03-19T03:38:33;99997.31;;;12.20;79.13
16355;BME280;8287;51.644;8.494;2023-03-19T03:41:00;99996.22;;;12.21;78.79
16355;BME280;8287;51.644;8.494;2023-03-19T03:43:27;99999.22;;;12.20;78.93
16355;BME280;8287;51.644;8.494;2023-03-19T03:45:54;99997.47;;;12.24;78.44
16355;BME280;8287;51.644;8.494;2023-03-19T03:48:20;100002.91;;;12.27;78.38
16355;BME280;8287;51.644;8.494;2023-03-19T03:50:49;100002.47;;;12.25;78.33
16355;BME280;8287;51.644;8.494;2023-03-19T03:53:15;100003.22;;;12.26;78.41
16355;BME280;8287;51.644;8.494;2023-03-19T03:55:42;100002.78;;;12.24;78.53
16355;BME280;8287;51.644;8.494;2023-03-19T03:58:09;100000.13;;;12.24;78.57
16355;BME280;8287;51.644;8.494;2023-03-19T04:00:37;100002.91;;;12.27;78.66
16355;BME280;8287;51.644;8.494;2023-03-19T04:03:04;99997.59;;;12.27;78.52
16355;BME280;8287;51.644;8.494;2023-03-19T04:05:31;99990.38;;;12.28;78.04
16355;BME280;8287;51.644;8.494;2023-03-19T04:07:59;99991.03;;;12.25;78.21
16355;BME280;8287;51.644;8.494;2023-03-19T04:10:27;99988.84;;;12.27;77.96
16355;BME280;8287;51.644;8.494;2023-03-19T04:12:54;99993.03;;;12.28;77.94
16355;BME280;8287;51.644;8.494;2023-03-19T04:15:21;99994.63;;;12.29;78.31
16355;BME280;8287;51.644;8.494;2023-03-19T04:17:48;99988.84;;;12.27;78.28
16355;BME280;8287;51.644;8.494;2023-03-19T04:20:14;99988.69;;;12.23;78.31
16355;BME280;8287;51.644;8.494;2023-03-19T04:22:43;99987.00;;;12.19;79.11
16355;BME280;8287;51.644;8.494;2023-03-19T04:25:11;99988.13;;;12.18;79.14
16355;BME280;8287;51.644;8.494;2023-03-19T04:27:38;99978.59;;;12.17;79.12
16355;BME280;8287;51.644;8.494;2023-03-19T04:30:05;99985.53;;;12.09;79.86
16355;BME280;8287;51.644;8.494;2023-03-19T04:32:31;99985.66;;;12.13;79.87
16355;BME280;8287;51.644;8.494;2023-03-19T04:34:59;99985.00;;;12.16;79.77
16355;BME280;8287;51.644;8.494;2023-03-19T04:37:26;99982.44;;;11.99;80.05
16355;BME280;8287;51.644;8.494;2023-03-19T04:39:53;99984.94;;;12.04;80.92
16355;BME280;8287;51.644;8.494;2023-03-19T04:42:21;99984.47;;;12.02;80.46
16355;BME280;8287;51.644;8.494;2023-03-19T04:44:48;99991.66;;;12.01;80.30
16355;BME280;8287;51.644;8.494;2023-03-19T04:47:14;99984.81;;;12.00;81.06
16355;BME280;8287;51.644;8.494;2023-03-19T04:49:41;99984.41;;;12.10;80.17
16355;BME280;8287;51.644;8.494;2023-03-19T04:52:08;99988.03;;;12.06;80.72
16355;BME280;8287;51.644;8.494;2023-03-19T04:54:34;99986.16;;;12.06;80.72
16355;BME280;8287;51.644;8.494;2023-03-19T04:57:01;99983.03;;;12.04;80.79
16355;BME280;8287;51.644;8.494;2023-03-19T04:59:29;99994.72;;;12.12;80.02
16355;BME280;8287;51.644;8.494;2023-03-19T05:01:56;99989.03;;;12.22;79.78
16355;BME280;8287;51.644;8.494;2023-03-19T05:04:22;99987.69;;;12.36;78.12
16355;BME280;8287;51.644;8.494;2023-03-19T05:06:49;99989.09;;;12.34;78.25
16355;BME280;8287;51.644;8.494;2023-03-19T05:09:16;99995.97;;;12.35;77.79
16355;BME280;8287;51.644;8.494;2023-03-19T05:11:43;99996.63;;;12.32;77.87
16355;BME280;8287;51.644;8.494;2023-03-19T05:14:09;100001.00;;;12.28;77.86
16355;BME280;8287;51.644;8.494;2023-03-19T05:16:37;99991.25;;;12.20;78.31
16355;BME280;8287;51.644;8.494;2023-03-19T05:19:04;99997.59;;;12.27;77.75
16355;BME280;8287;51.644;8.494;2023-03-19T05:21:31;99997.59;;;12.27;77.11
16355;BME280;8287;51.644;8.494;2023-03-19T05:23:57;100010.44;;;12.25;77.08
16355;BME280;8287;51.644;8.494;2023-03-19T05:26:24;100003.75;;;12.19;77.85
16355;BME280;8287;51.644;8.494;2023-03-19T05:28:51;100007.25;;;12.32;77.16
16355;BME280;8287;51.644;8.494;2023-03-19T05:31:18;100002.97;;;12.39;76.52
16355;BME280;8287;51.644;8.494;2023-03-19T05:33:45;100004.03;;;12.47;75.47
16355;BME280;8287;51.644;8.494;2023-03-19T05:36:12;100005.00;;;12.63;75.27
16355;BME280;8287;51.644;8.494;2023-03-19T05:38:39;100015.03;;;12.78;74.42
16355;BME280;8287;51.644;8.494;2023-03-19T05:41:06;100018.28;;;12.83;74.05
16355;BME280;8287;51.644;8.494;2023-03-19T05:43:33;100018.34;;;12.95;73.01
16355;BME280;8287;51.644;8.494;2023-03-19T05:46:00;100015.16;;;13.02;73.03
16355;BME280;8287;51.644;8.494;2023-03-19T05:48:27;100017.63;;;13.07;72.41
16355;BME280;8287;51.644;8.494;2023-03-19T05:50:55;100023.31;;;13.17;72.33
16355;BME280;8287;51.644;8.494;2023-03-19T05:53:23;100021.09;;;13.19;72.16
16355;BME280;8287;51.644;8.494;2023-03-19T05:55:50;100031.19;;;13.25;72.04
16355;BME280;8287;51.644;8.494;2023-03-19T05:58:16;100031.88;;;13.23;71.99
16355;BME280;8287;51.644;8.494;2023-03-19T06:00:43;100029.44;;;13.29;71.57
16355;BME280;8287;51.644;8.494;2023-03-19T06:03:10;100027.56;;;13.30;71.67
16355;BME280;8287;51.644;8.494;2023-03-19T06:05:37;100037.22;;;13.34;71.74
16355;BME280;8287;51.644;8.494;2023-03-19T06:08:05;100029.34;;;13.38;71.35
16355;BME280;8287;51.644;8.494;2023-03-19T06:10:33;100034.66;;;13.38;71.56
16355;BME280;8287;51.644;8.494;2023-03-19T06:13:00;100033.69;;;13.42;71.61
16355;BME280;8287;51.644;8.494;2023-03-19T06:15:26;100032.81;;;13.50;71.56
16355;BME280;8287;51.644;8.494;2023-03-19T06:17:53;100026.81;;;13.53;71.64
16355;BME280;8287;51.644;8.494;2023-03-19T06:20:19;100033.06;;;13.57;71.65
16355;BME280;8287;51.644;8.494;2023-03-19T06:22:46;100037.06;;;13.63;71.52
16355;BME280;8287;51.644;8.494;2023-03-19T06:25:14;100033.97;;;13.73;71.53
16355;BME280;8287;51.644;8.494;2023-03-19T06:27:41;100035.75;;;13.81;71.04
16355;BME280;8287;51.644;8.494;2023-03-19T06:30:09;100035.06;;;13.84;70.95
16355;BME280;8287;51.644;8.494;2023-03-19T06:32:35;100034.19;;;13.92;70.86
16355;BME280;8287;51.644;8.494;2023-03-19T06:35:03;100041.31;;;14.00;70.99
16355;BME280;8287;51.644;8.494;2023-03-19T06:37:30;100044.50;;;14.06;70.14
16355;BME280;8287;51.644;8.494;2023-03-19T06:39:57;100044.19;;;14.07;70.40
16355;BME280;8287;51.644;8.494;2023-03-19T06:42:25;100053.06;;;14.11;70.19
16355;BME280;8287;51.644;8.494;2023-03-19T06:44:52;100043.44;;;14.19;69.93
16355;BME280;8287;51.644;8.494;2023-03-19T06:47:18;100052.97;;;14.32;69.93
16355;BME280;8287;51.644;8.494;2023-03-19T06:49:45;100052.09;;;14.28;69.34
16355;BME280;8287;51.644;8.494;2023-03-19T06:52:12;100057.53;;;14.31;70.09
16355;BME280;8287;51.644;8.494;2023-03-19T06:54:38;100065.75;;;14.38;70.00
16355;BME280;8287;51.644;8.494;2023-03-19T06:57:05;100062.63;;;14.48;69.53
16355;BME280;8287;51.644;8.494;2023-03-19T06:59:33;100064.81;;;14.58;69.29
16355;BME280;8287;51.644;8.494;2023-03-19T07:02:00;100071.13;;;14.66;69.20
16355;BME280;8287;51.644;8.494;2023-03-19T07:04:27;100071.59;;;14.68;68.75
16355;BME280;8287;51.644;8.494;2023-03-19T07:06:54;100082.13;;;14.76;68.38
16355;BME280;8287;51.644;8.494;2023-03-19T07:09:20;100078.78;;;14.79;68.65
16355;BME280;8287;51.644;8.494;2023-03-19T07:11:48;100088.78;;;14.82;68.83
16355;BME280;8287;51.644;8.494;2023-03-19T07:14:15;100082.75;;;14.85;68.85
16355;BME280;8287;51.644;8.494;2023-03-19T07:16:43;100094.44;;;14.93;68.95
16355;BME280;8287;51.644;8.494;2023-03-19T07:19:10;100092.53;;;14.93;68.33
16355;BME280;8287;51.644;8.494;2023-03-19T07:21:36;100099.63;;;15.01;68.27
16355;BME280;8287;51.644;8.494;2023-03-19T07:24:04;100099.38;;;15.06;68.21
16355;BME280;8287;51.644;8.494;2023-03-19T07:26:30;100089.56;;;15.10;68.04
16355;BME280;8287;51.644;8.494;2023-03-19T07:28:57;100090.47;;;15.14;67.85
16355;BME280;8287;51.644;8.494;2023-03-19T07:31:24;100091.31;;;15.18;67.85
16355;BME280;8287;51.644;8.494;2023-03-19T07:33:52;100105.31;;;15.27;67.38
16355;BME280;8287;51.644;8.494;2023-03-19T07:36:18;100112.31;;;15.32;66.86
16355;BME280;8287;51.644;8.494;2023-03-19T07:38:46;100109.31;;;15.33;67.05
16355;BME280;8287;51.644;8.494;2023-03-19T07:41:13;100106.75;;;15.37;67.32
16355;BME280;8287;51.644;8.494;2023-03-19T07:43:39;100094.16;;;15.37;66.78
16355;BME280;8287;51.644;8.494;2023-03-19T07:46:06;100096.38;;;15.47;66.13
16355;BME280;8287;51.644;8.494;2023-03-19T07:48:33;100111.09;;;15.57;66.38
16355;BME280;8287;51.644;8.494;2023-03-19T07:51:01;100111.69;;;15.50;65.26
16355;BME280;8287;51.644;8.494;2023-03-19T07:53:28;100112.91;;;15.53;64.94
16355;BME280;8287;51.644;8.494;2023-03-19T07:55:55;100116.09;;;15.58;65.46
16355;BME280;8287;51.644;8.494;2023-03-19T07:58:22;100111.47;;;15.55;65.37
16355;BME280;8287;51.644;8.494;2023-03-19T08:00:48;100122.47;;;15.54;65.30
16355;BME280;8287;51.644;8.494;2023-03-19T08:03:16;100125.84;;;15.51;65.92
16355;BME280;8287;51.644;8.494;2023-03-19T08:05:43;100123.59;;;15.53;65.73
16355;BME280;8287;51.644;8.494;2023-03-19T08:08:11;100127.63;;;15.62;65.58
16355;BME280;8287;51.644;8.494;2023-03-19T08:10:37;100126.03;;;15.73;64.96
16355;BME280;8287;51.644;8.494;2023-03-19T08:13:04;100132.84;;;15.71;65.14
16355;BME280;8287;51.644;8.494;2023-03-19T08:15:31;100133.38;;;15.76;64.50
16355;BME280;8287;51.644;8.494;2023-03-19T08:17:58;100130.34;;;15.78;64.21
16355;BME280;8287;51.644;8.494;2023-03-19T08:20:25;100130.44;;;15.81;64.17
16355;BME280;8287;51.644;8.494;2023-03-19T08:22:52;100134.06;;;15.89;64.73
16355;BME280;8287;51.644;8.494;2023-03-19T08:25:20;100144.59;;;15.97;64.84
16355;BME280;8287;51.644;8.494;2023-03-19T08:27:47;100124.59;;;15.91;63.76
16355;BME280;8287;51.644;8.494;2023-03-19T08:30:14;100139.41;;;16.04;63.69
16355;BME280;8287;51.644;8.494;2023-03-19T08:32:42;100134.16;;;16.08;63.53
16355;BME280;8287;51.644;8.494;2023-03-19T08:35:09;100137.34;;;16.13;63.35
16355;BME280;8287;51.644;8.494;2023-03-19T08:37:36;100136.69;;;16.16;63.62
16355;BME280;8287;51.644;8.494;2023-03-19T08:40:04;100133.91;;;16.28;63.27
16355;BME280;8287;51.644;8.494;2023-03-19T08:42:32;100139.34;;;16.32;63.16
16355;BME280;8287;51.644;8.494;2023-03-19T08:44:59;100136.00;;;16.35;62.91
16355;BME280;8287;51.644;8.494;2023-03-19T08:47:25;100133.41;;;16.38;63.06
16355;BME280;8287;51.644;8.494;2023-03-19T08:49:52;100134.38;;;16.46;62.61
16355;BME280;8287;51.644;8.494;2023-03-19T08:52:19;100140.09;;;16.63;62.47
16355;BME280;8287;51.644;8.494;2023-03-19T08:54:46;100139.50;;;16.70;62.44
16355;BME280;8287;51.644;8.494;2023-03-19T08:57:12;100132.25;;;16.70;61.91
16355;BME280;8287;51.644;8.494;2023-03-19T08:59:41;100139.59;;;16.73;62.09
16355;BME280;8287;51.644;8.494;2023-03-19T09:02:08;100140.16;;;16.82;61.83
16355;BME280;8287;51.644;8.494;2023-03-19T09:04:36;100139.97;;;16.90;61.94
16355;BME280;8287;51.644;8.494;2023-03-19T09:07:03;100150.75;;;16.94;60.73
16355;BME280;8287;51.644;8.494;2023-03-19T09:09:30;100154.41;;;17.05;60.61
16355;BME280;8287;51.644;8.494;2023-03-19T09:11:57;100152.53;;;17.05;60.27
16355;BME280;8287;51.644;8.494;2023-03-19T09:14:24;100150.34;;;17.11;60.24
16355;BME280;8287;51.644;8.494;2023-03-19T09:16:52;100156.88;;;16.94;60.50
16355;BME280;8287;51.644;8.494;2023-03-19T09:19:20;100153.97;;;17.18;60.60
16355;BME280;8287;51.644;8.494;2023-03-19T09:21:47;100163.63;;;17.23;58.63
16355;BME280;8287;51.644;8.494;2023-03-19T09:24:14;100155.13;;;17.36;59.13
16355;BME280;8287;51.644;8.494;2023-03-19T09:26:41;100160.94;;;17.61;59.01
16355;BME280;8287;51.644;8.494;2023-03-19T09:29:07;100172.63;;;17.72;57.84
16355;BME280;8287;51.644;8.494;2023-03-19T09:31:35;100165.97;;;17.62;58.27
16355;BME280;8287;51.644;8.494;2023-03-19T09:34:03;100161.56;;;17.73;58.19
16355;BME280;8287;51.644;8.494;2023-03-19T09:36:31;100168.13;;;17.76;57.87
16355;BME280;8287;51.644;8.494;2023-03-19T09:38:58;100180.59;;;17.87;58.44
16355;BME280;8287;51.644;8.494;2023-03-19T09:41:28;100178.06;;;17.94;57.72
16355;BME280;8287;51.644;8.494;2023-03-19T09:44:00;100171.97;;;17.97;58.26
16355;BME280;8287;51.644;8.494;2023-03-19T09:46:33;100165.41;;;17.95;58.34
16355;BME280;8287;51.644;8.494;2023-03-19T09:49:10;100163.78;;;17.90;57.88
16355;BME280;8287;51.644;8.494;2023-03-19T09:51:44;100171.69;;;18.02;57.04
16355;BME280;8287;51.644;8.494;2023-03-19T09:54:24;100173.56;;;18.02;57.33
16355;BME280;8287;51.644;8.494;2023-03-19T09:56:52;100163.56;;;17.99;57.71
16355;BME280;8287;51.644;8.494;2023-03-19T09:59:20;100169.47;;;18.08;57.06
16355;BME280;8287;51.644;8.494;2023-03-19T10:01:52;100174.41;;;18.06;57.04
16355;BME280;8287;51.644;8.494;2023-03-19T10:04:38;100173.16;;;18.00;57.14
16355;BME280;8287;51.644;8.494;2023-03-19T10:07:18;100177.47;;;18.04;57.59
16355;BME280;8287;51.644;8.494;2023-03-19T10:09:56;100174.31;;;18.21;57.33
16355;BME280;8287;51.644;8.494;2023-03-19T10:12:41;100172.94;;;18.31;57.03
16355;BME280;8287;51.644;8.494;2023-03-19T10:15:16;100182.25;;;18.37;56.73
16355;BME280;8287;51.644;8.494;2023-03-19T10:17:55;100181.44;;;18.33;57.64
16355;BME280;8287;51.644;8.494;2023-03-19T10:20:30;100179.88;;;18.32;56.97
16355;BME280;8287;51.644;8.494;2023-03-19T10:23:03;100182.97;;;18.34;57.76
16355;BME280;8287;51.644;8.494;2023-03-19T10:25:38;100187.31;;;18.42;57.07
16355;BME280;8287;51.644;8.494;2023-03-19T10:28:11;100187.25;;;18.38;55.90
16355;BME280;8287;51.644;8.494;2023-03-19T10:30:40;100186.72;;;18.29;56.20
16355;BME280;8287;51.644;8.494;2023-03-19T10:33:14;100183.16;;;18.25;57.38
16355;BME280;8287;51.644;8.494;2023-03-19T10:35:49;100181.00;;;18.31;56.49
16355;BME280;8287;51.644;8.494;2023-03-19T10:38:21;100186.34;;;18.31;57.27
16355;BME280;8287;51.644;8.494;2023-03-19T10:40:58;100177.34;;;18.20;57.69
16355;BME280;8287;51.644;8.494;2023-03-19T10:43:29;100188.78;;;18.17;56.93
16355;BME280;8287;51.644;8.494;2023-03-19T10:45:58;100185.13;;;18.06;58.03
16355;BME280;8287;51.644;8.494;2023-03-19T10:48:25;100189.94;;;17.97;57.48
16355;BME280;8287;51.644;8.494;2023-03-19T10:50:56;100196.75;;;17.91;57.96
16355;BME280;8287;51.644;8.494;2023-03-19T10:53:30;100189.88;;;17.93;58.38
16355;BME280;8287;51.644;8.494;2023-03-19T10:56:01;100188.41;;;17.96;57.95
16355;BME280;8287;51.644;8.494;2023-03-19T10:58:29;100189.94;;;17.97;57.64
16355;BME280;8287;51.644;8.494;2023-03-19T11:00:58;100198.97;;;18.08;57.90
16355;BME280;8287;51.644;8.494;2023-03-19T11:03:30;100200.59;;;18.12;58.43
16355;BME280;8287;51.644;8.494;2023-03-19T11:06:15;100195.16;;;18.09;57.87
16355;BME280;8287;51.644;8.494;2023-03-19T11:08:55;100196.09;;;18.20;56.99
16355;BME280;8287;51.644;8.494;2023-03-19T11:11:31;100192.16;;;18.33;57.28
16355;BME280;8287;51.644;8.494;2023-03-19T11:14:06;100195.19;;;18.31;57.21
16355;BME280;8287;51.644;8.494;2023-03-19T11:16:48;100185.78;;;18.41;57.72
16355;BME280;8287;51.644;8.494;2023-03-19T11:19:19;100192.63;;;18.38;56.54
16355;BME280;8287;51.644;8.494;2023-03-19T11:21:59;100195.53;;;18.30;57.74
16355;BME280;8287;51.644;8.494;2023-03-19T11:24:30;100197.03;;;18.27;57.76
16355;BME280;8287;51.644;8.494;2023-03-19T11:26:58;100200.47;;;18.28;57.70
16355;BME280;8287;51.644;8.494;2023-03-19T11:29:28;100194.34;;;18.27;57.52
16355;BME280;8287;51.644;8.494;2023-03-19T11:32:02;100196.91;;;18.20;58.39
16355;BME280;8287;51.644;8.494;2023-03-19T11:34:39;100195.69;;;18.18;58.19
16355;BME280;8287;51.644;8.494;2023-03-19T11:37:17;100207.16;;;18.15;58.04
16355;BME280;8287;51.644;8.494;2023-03-19T11:39:57;100196.09;;;18.20;58.65
16355;BME280;8287;51.644;8.494;2023-03-19T11:42:43;100198.56;;;18.28;58.57
16355;BME280;8287;51.644;8.494;2023-03-19T11:45:23;100194.91;;;18.36;58.83
16355;BME280;8287;51.644;8.494;2023-03-19T11:48:00;100197.13;;;18.34;57.08
16355;BME280;8287;51.644;8.494;2023-03-19T11:50:34;100193.38;;;18.39;57.60
16355;BME280;8287;51.644;8.494;2023-03-19T11:53:19;100191.22;;;18.48;57.18
16355;BME280;8287;51.644;8.494;2023-03-19T11:55:53;100186.72;;;18.52;57.10
16355;BME280;8287;51.644;8.494;2023-03-19T11:58:43;100184.19;;;18.62;57.76
16355;BME280;8287;51.644;8.494;2023-03-19T12:01:27;100180.38;;;18.63;57.13
16355;BME280;8287;51.644;8.494;2023-03-19T12:07:02;100196.06;;;18.61;57.05
16355;BME280;8287;51.644;8.494;2023-03-19T12:09:39;100191.06;;;18.60;56.68
16355;BME280;8287;51.644;8.494;2023-03-19T12:12:16;100184.03;;;18.52;56.93
16355;BME280;8287;51.644;8.494;2023-03-19T12:15:00;100189.44;;;18.55;57.52
16355;BME280;8287;51.644;8.494;2023-03-19T12:17:47;100196.38;;;18.56;58.19
16355;BME280;8287;51.644;8.494;2023-03-19T12:20:30;100192.88;;;18.52;57.72
16355;BME280;8287;51.644;8.494;2023-03-19T12:23:05;100192.13;;;18.55;58.42
16355;BME280;8287;51.644;8.494;2023-03-19T12:25:57;100175.25;;;18.55;57.67
16355;BME280;8287;51.644;8.494;2023-03-19T12:28:31;100188.88;;;18.69;58.64
16355;BME280;8287;51.644;8.494;2023-03-19T12:31:38;100187.56;;;18.33;59.96
16355;BME280;8287;51.644;8.494;2023-03-19T12:34:19;100183.72;;;18.57;59.23
16355;BME280;8287;51.644;8.494;2023-03-19T12:36:53;100177.63;;;18.60;58.47
16355;BME280;8287;51.644;8.494;2023-03-19T12:39:24;100183.63;;;18.50;59.57
16355;BME280;8287;51.644;8.494;2023-03-19T12:41:54;100177.47;;;18.49;59.68
16355;BME280;8287;51.644;8.494;2023-03-19T12:44:26;100188.44;;;18.63;59.25
16355;BME280;8287;51.644;8.494;2023-03-19T12:46:56;100174.22;;;18.63;58.82
16355;BME280;8287;51.644;8.494;2023-03-19T12:49:30;100174.22;;;18.63;59.02
16355;BME280;8287;51.644;8.494;2023-03-19T12:52:06;100177.97;;;18.58;58.78
16355;BME280;8287;51.644;8.494;2023-03-19T12:54:37;100178.44;;;18.64;59.21
16355;BME280;8287;51.644;8.494;2023-03-19T12:57:09;100187.28;;;18.64;58.71
16355;BME280;8287;51.644;8.494;2023-03-19T12:59:46;100181.81;;;18.57;59.14
16355;BME280;8287;51.644;8.494;2023-03-19T13:02:17;100188.84;;;18.65;59.81
16355;BME280;8287;51.644;8.494;2023-03-19T13:04:52;100185.38;;;18.65;61.02
16355;BME280;8287;51.644;8.494;2023-03-19T13:07:25;100184.84;;;18.56;61.23
16355;BME280;8287;51.644;8.494;2023-03-19T13:09:58;100189.09;;;18.57;61.43
16355;BME280;8287;51.644;8.494;2023-03-19T13:12:29;100190.94;;;18.53;60.50
16355;BME280;8287;51.644;8.494;2023-03-19T13:14:59;100181.22;;;18.45;61.23
16355;BME280;8287;51.644;8.494;2023-03-19T13:17:34;100177.72;;;18.41;61.43
16355;BME280;8287;51.644;8.494;2023-03-19T13:20:12;100175.03;;;18.41;61.87